RYR7964 LFSL-EGSS
Flight info
| Callsign | RYR7964 |
|---|---|
| Flight time | 1h 16m |
| Altitude | 30000 |
| Route | PERIG DCT CNA DCT TUPAR UN861 DIKRO UM185 TELTU |
| Aircraft | B738/M-SADFGIJ1LRWYZ/SB1 |
Departure
| Time | 2026-05-04 10:36 |
|---|---|
| Airport | Brive Souillac airport (LFSL) |
Arrival
| Time | 2026-05-04 11:52 |
|---|---|
| Airport | London Stansted Airport (EGSS) |
| Time | Latitude | Longitude | Altitude | Speed | Heading |
|---|---|---|---|---|---|
| 2026-05-04 09:35 | 45.04076 | 1.48914 | 1007 ft | 0 kts | 160° |
| 2026-05-04 10:32 | 45.03943 | 1.48926 | 1007 ft | 11 kts | 203° |
| 2026-05-04 10:33 | 45.03885 | 1.48858 | 1007 ft | 11 kts | 259° |
| 2026-05-04 10:33 | 45.03915 | 1.48738 | 1008 ft | 15 kts | 294° |
| 2026-05-04 10:33 | 45.03964 | 1.48588 | 1010 ft | 19 kts | 295° |
| 2026-05-04 10:33 | 45.04026 | 1.48396 | 1012 ft | 23 kts | 294° |
| 2026-05-04 10:34 | 45.04094 | 1.48178 | 1013 ft | 26 kts | 294° |
| 2026-05-04 10:34 | 45.04172 | 1.47934 | 1016 ft | 29 kts | 295° |
| 2026-05-04 10:34 | 45.04260 | 1.47667 | 1015 ft | 30 kts | 294° |
| 2026-05-04 10:34 | 45.04336 | 1.47428 | 1012 ft | 18 kts | 294° |
| 2026-05-04 10:35 | 45.04364 | 1.47292 | 1014 ft | 10 kts | 327° |
| 2026-05-04 10:35 | 45.04373 | 1.47313 | 1014 ft | 4 kts | 97° |
| 2026-05-04 10:35 | 45.04343 | 1.47417 | 1012 ft | 31 kts | 114° |
| 2026-05-04 10:35 | 45.04140 | 1.48046 | 1015 ft | 108 kts | 114° |
| 2026-05-04 10:36 | 45.03733 | 1.49309 | 1058 ft | 167 kts | 115° |
| 2026-05-04 10:36 | 45.03235 | 1.50828 | 1841 ft | 171 kts | 120° |
| 2026-05-04 10:36 | 45.02698 | 1.52333 | 2762 ft | 172 kts | 125° |
| 2026-05-04 10:36 | 45.01791 | 1.53451 | 3373 ft | 184 kts | 161° |
| 2026-05-04 10:37 | 45.00462 | 1.53589 | 3751 ft | 206 kts | 195° |
| 2026-05-04 10:37 | 44.99194 | 1.52493 | 4160 ft | 224 kts | 229° |
| 2026-05-04 10:37 | 44.98533 | 1.50495 | 4940 ft | 231 kts | 262° |
| 2026-05-04 10:37 | 44.98760 | 1.48288 | 5840 ft | 235 kts | 289° |
| 2026-05-04 10:39 | 45.04224 | 1.34151 | 10289 ft | 291 kts | 296° |
| 2026-05-04 10:39 | 45.05239 | 1.31548 | 10557 ft | 315 kts | 296° |
| 2026-05-04 10:39 | 45.06335 | 1.28718 | 10785 ft | 339 kts | 296° |
| 2026-05-04 10:40 | 45.07480 | 1.25747 | 11359 ft | 348 kts | 296° |
| 2026-05-04 10:40 | 45.08644 | 1.22709 | 12135 ft | 352 kts | 296° |
| 2026-05-04 10:40 | 45.09816 | 1.19647 | 12939 ft | 355 kts | 296° |
| 2026-05-04 10:40 | 45.10999 | 1.16555 | 13720 ft | 360 kts | 296° |
| 2026-05-04 10:41 | 45.12196 | 1.13421 | 14401 ft | 364 kts | 295° |
| 2026-05-04 10:41 | 45.13407 | 1.10250 | 15079 ft | 368 kts | 295° |
| 2026-05-04 10:41 | 45.14628 | 1.07047 | 15763 ft | 372 kts | 295° |
| 2026-05-04 10:41 | 45.15861 | 1.03808 | 16439 ft | 375 kts | 295° |
| 2026-05-04 10:42 | 45.17105 | 1.00537 | 17129 ft | 379 kts | 295° |
| 2026-05-04 10:42 | 45.18442 | 0.97285 | 17826 ft | 384 kts | 304° |
| 2026-05-04 10:42 | 45.20437 | 0.94724 | 18560 ft | 394 kts | 326° |
| 2026-05-04 10:42 | 45.22982 | 0.93234 | 19202 ft | 401 kts | 343° |
| 2026-05-04 10:43 | 45.25670 | 0.92302 | 19771 ft | 405 kts | 344° |
| 2026-05-04 10:44 | 45.45558 | 0.85633 | 23534 ft | 433 kts | 344° |
| 2026-05-04 10:45 | 45.48499 | 0.84611 | 23971 ft | 436 kts | 344° |
| 2026-05-04 10:45 | 45.51418 | 0.83594 | 24394 ft | 439 kts | 344° |
| 2026-05-04 10:45 | 45.54435 | 0.82541 | 24823 ft | 442 kts | 343° |
| 2026-05-04 10:45 | 45.57393 | 0.81507 | 25229 ft | 445 kts | 343° |
| 2026-05-04 10:46 | 45.60416 | 0.80450 | 25580 ft | 450 kts | 343° |
| 2026-05-04 10:46 | 45.63472 | 0.79379 | 25932 ft | 454 kts | 343° |
| 2026-05-04 10:46 | 45.66547 | 0.78301 | 26373 ft | 456 kts | 343° |
| 2026-05-04 10:46 | 45.69632 | 0.77219 | 26821 ft | 458 kts | 343° |
| 2026-05-04 10:47 | 45.72743 | 0.76127 | 27173 ft | 461 kts | 343° |
| 2026-05-04 10:47 | 45.75866 | 0.75029 | 27557 ft | 464 kts | 343° |
| 2026-05-04 10:47 | 45.79016 | 0.73921 | 27946 ft | 467 kts | 343° |
| 2026-05-04 10:47 | 45.82181 | 0.72805 | 28298 ft | 470 kts | 343° |
| 2026-05-04 10:49 | 46.04781 | 0.64802 | 30719 ft | 482 kts | 343° |
| 2026-05-04 10:49 | 46.08028 | 0.63649 | 31176 ft | 479 kts | 343° |
| 2026-05-04 10:50 | 46.11257 | 0.62500 | 31585 ft | 477 kts | 343° |
| 2026-05-04 10:51 | 46.33678 | 0.54472 | 33974 ft | 475 kts | 343° |
| 2026-05-04 10:52 | 46.36903 | 0.53311 | 33952 ft | 478 kts | 343° |
| 2026-05-04 10:52 | 46.43351 | 0.50987 | 33954 ft | 475 kts | 343° |
| 2026-05-04 10:54 | 46.68811 | 0.41755 | 33965 ft | 475 kts | 343° |
| 2026-05-04 10:56 | 46.93324 | 0.32784 | 33950 ft | 472 kts | 343° |
| 2026-05-04 10:57 | 46.99698 | 0.30437 | 33961 ft | 473 kts | 343° |
| 2026-05-04 10:57 | 47.06072 | 0.28085 | 33946 ft | 471 kts | 343° |
| 2026-05-04 10:58 | 47.12422 | 0.25736 | 33968 ft | 470 kts | 343° |
| 2026-05-04 10:58 | 47.18783 | 0.23376 | 33952 ft | 472 kts | 343° |
| 2026-05-04 10:59 | 47.25102 | 0.21026 | 33955 ft | 472 kts | 343° |
| 2026-05-04 10:59 | 47.31467 | 0.18654 | 33947 ft | 472 kts | 343° |
| 2026-05-04 11:00 | 47.37837 | 0.16273 | 33953 ft | 471 kts | 343° |
| 2026-05-04 11:02 | 47.63296 | 0.06699 | 33955 ft | 472 kts | 343° |
| 2026-05-04 11:05 | 48.10996 | -0.11499 | 33950 ft | 469 kts | 343° |
| 2026-05-04 11:06 | 48.17302 | -0.13931 | 33953 ft | 468 kts | 343° |
| 2026-05-04 11:06 | 48.23570 | -0.16354 | 33950 ft | 467 kts | 343° |
| 2026-05-04 11:10 | 48.67734 | -0.33607 | 33968 ft | 470 kts | 343° |
| 2026-05-04 11:12 | 48.93057 | -0.43640 | 33995 ft | 470 kts | 343° |
| 2026-05-04 11:12 | 48.99387 | -0.46165 | 34005 ft | 470 kts | 343° |
| 2026-05-04 11:13 | 49.05721 | -0.48698 | 34017 ft | 470 kts | 343° |
| 2026-05-04 11:13 | 49.12010 | -0.51219 | 34030 ft | 469 kts | 344° |
| 2026-05-04 11:14 | 49.18318 | -0.53755 | 34018 ft | 468 kts | 344° |
| 2026-05-04 11:16 | 49.43328 | -0.63876 | 33998 ft | 463 kts | 344° |
| 2026-05-04 11:16 | 49.49558 | -0.66413 | 33998 ft | 463 kts | 343° |
| 2026-05-04 11:17 | 49.55791 | -0.68960 | 34002 ft | 464 kts | 344° |
| 2026-05-04 11:19 | 49.80795 | -0.79243 | 33575 ft | 468 kts | 343° |
| 2026-05-04 11:19 | 49.83918 | -0.80534 | 33172 ft | 461 kts | 343° |
| 2026-05-04 11:19 | 49.86999 | -0.81811 | 32769 ft | 456 kts | 343° |
| 2026-05-04 11:20 | 49.90050 | -0.83078 | 32323 ft | 452 kts | 343° |
| 2026-05-04 11:20 | 49.93073 | -0.84335 | 31911 ft | 448 kts | 343° |
| 2026-05-04 11:20 | 49.96078 | -0.85583 | 31484 ft | 444 kts | 343° |
| 2026-05-04 11:20 | 49.99076 | -0.86651 | 31067 ft | 442 kts | 350° |
| 2026-05-04 11:22 | 50.20029 | -0.84354 | 28117 ft | 420 kts | 4° |
| 2026-05-04 11:22 | 50.22929 | -0.83940 | 27691 ft | 417 kts | 4° |
| 2026-05-04 11:23 | 50.25808 | -0.83530 | 27271 ft | 414 kts | 4° |
| 2026-05-04 11:23 | 50.28664 | -0.83122 | 26861 ft | 411 kts | 4° |
| 2026-05-04 11:24 | 50.45423 | -0.80695 | 24432 ft | 396 kts | 4° |
| 2026-05-04 11:25 | 50.48157 | -0.80299 | 24034 ft | 394 kts | 3° |
| 2026-05-04 11:25 | 50.50887 | -0.79904 | 23636 ft | 392 kts | 3° |
| 2026-05-04 11:25 | 50.53599 | -0.79511 | 23178 ft | 390 kts | 4° |
| 2026-05-04 11:26 | 50.58966 | -0.78731 | 22323 ft | 384 kts | 4° |
| 2026-05-04 11:27 | 50.77059 | -0.76082 | 19607 ft | 364 kts | 5° |
| 2026-05-04 11:28 | 50.79576 | -0.75712 | 19224 ft | 363 kts | 5° |
| 2026-05-04 11:28 | 50.82054 | -0.75045 | 19021 ft | 364 kts | 19° |
| 2026-05-04 11:28 | 50.84411 | -0.73612 | 19011 ft | 359 kts | 23° |
| 2026-05-04 11:28 | 50.86684 | -0.72103 | 18991 ft | 347 kts | 24° |
| 2026-05-04 11:29 | 50.88862 | -0.70639 | 18992 ft | 333 kts | 24° |
| 2026-05-04 11:29 | 50.90967 | -0.69231 | 18993 ft | 325 kts | 23° |
| 2026-05-04 11:29 | 50.93097 | -0.67820 | 19032 ft | 341 kts | 23° |
| 2026-05-04 11:29 | 50.95357 | -0.66334 | 19034 ft | 362 kts | 23° |
| 2026-05-04 11:31 | 51.11958 | -0.55535 | 19011 ft | 368 kts | 23° |
| 2026-05-04 11:33 | 51.28528 | -0.44705 | 18186 ft | 365 kts | 23° |
| 2026-05-04 11:33 | 51.30876 | -0.43164 | 18055 ft | 364 kts | 23° |
| 2026-05-04 11:33 | 51.33225 | -0.41620 | 18057 ft | 370 kts | 23° |
| 2026-05-04 11:34 | 51.35647 | -0.40026 | 18065 ft | 387 kts | 22° |
| 2026-05-04 11:34 | 51.38131 | -0.38390 | 17958 ft | 383 kts | 22° |
| 2026-05-04 11:34 | 51.40585 | -0.36772 | 17510 ft | 381 kts | 22° |
| 2026-05-04 11:34 | 51.43032 | -0.35156 | 16944 ft | 380 kts | 22° |
| 2026-05-04 11:35 | 51.45454 | -0.33460 | 16364 ft | 380 kts | 25° |
| 2026-05-04 11:35 | 51.47836 | -0.31648 | 15865 ft | 377 kts | 26° |
| 2026-05-04 11:35 | 51.50190 | -0.29812 | 15376 ft | 374 kts | 26° |
| 2026-05-04 11:35 | 51.52519 | -0.27993 | 14949 ft | 372 kts | 26° |
| 2026-05-04 11:36 | 51.54840 | -0.26190 | 14518 ft | 369 kts | 26° |
| 2026-05-04 11:36 | 51.57149 | -0.24406 | 14053 ft | 367 kts | 25° |
| 2026-05-04 11:36 | 51.59448 | -0.22635 | 13642 ft | 365 kts | 25° |
| 2026-05-04 11:36 | 51.61735 | -0.20876 | 13163 ft | 362 kts | 25° |
| 2026-05-04 11:37 | 51.63986 | -0.19144 | 12952 ft | 352 kts | 25° |
| 2026-05-04 11:37 | 51.66159 | -0.17472 | 12860 ft | 340 kts | 25° |
| 2026-05-04 11:37 | 51.68226 | -0.15880 | 12749 ft | 328 kts | 25° |
| 2026-05-04 11:37 | 51.70277 | -0.14299 | 12662 ft | 317 kts | 25° |
| 2026-05-04 11:38 | 51.72216 | -0.12802 | 12482 ft | 311 kts | 25° |
| 2026-05-04 11:38 | 51.74160 | -0.11299 | 12165 ft | 309 kts | 25° |
| 2026-05-04 11:38 | 51.76107 | -0.09827 | 11833 ft | 308 kts | 24° |
| 2026-05-04 11:38 | 51.78072 | -0.08442 | 11515 ft | 307 kts | 22° |
| 2026-05-04 11:39 | 51.80028 | -0.07088 | 11205 ft | 305 kts | 22° |
| 2026-05-04 11:39 | 51.81976 | -0.05740 | 10902 ft | 303 kts | 22° |
| 2026-05-04 11:40 | 51.92980 | 0.01964 | 9990 ft | 264 kts | 22° |
| 2026-05-04 11:41 | 51.94675 | 0.03158 | 9748 ft | 262 kts | 22° |
| 2026-05-04 11:41 | 51.96343 | 0.04334 | 9483 ft | 261 kts | 22° |
| 2026-05-04 11:41 | 51.97981 | 0.05491 | 9238 ft | 259 kts | 23° |
| 2026-05-04 11:41 | 51.99493 | 0.07052 | 8966 ft | 259 kts | 44° |
| 2026-05-04 11:42 | 52.00734 | 0.09138 | 8781 ft | 255 kts | 46° |
| 2026-05-04 11:42 | 52.01967 | 0.11216 | 8627 ft | 255 kts | 46° |
| 2026-05-04 11:42 | 52.03074 | 0.13466 | 8455 ft | 256 kts | 65° |
| 2026-05-04 11:42 | 52.03408 | 0.15281 | 8370 ft | 254 kts | 86° |
| 2026-05-04 11:43 | 52.03157 | 0.18060 | 8245 ft | 250 kts | 116° |
| 2026-05-04 11:43 | 52.02091 | 0.20222 | 8130 ft | 246 kts | 147° |
| 2026-05-04 11:43 | 52.00520 | 0.21175 | 8002 ft | 243 kts | 178° |
| 2026-05-04 11:43 | 51.98426 | 0.20214 | 7846 ft | 239 kts | 218° |
| 2026-05-04 11:44 | 51.97579 | 0.19019 | 7777 ft | 239 kts | 224° |
| 2026-05-04 11:44 | 51.96414 | 0.17151 | 7608 ft | 238 kts | 225° |
| 2026-05-04 11:44 | 51.95253 | 0.15241 | 7348 ft | 238 kts | 226° |
| 2026-05-04 11:44 | 51.94096 | 0.13329 | 7083 ft | 238 kts | 225° |
| 2026-05-04 11:45 | 51.92871 | 0.11507 | 6760 ft | 240 kts | 221° |
| 2026-05-04 11:45 | 51.91609 | 0.09724 | 6503 ft | 240 kts | 221° |
| 2026-05-04 11:45 | 51.90347 | 0.07947 | 6229 ft | 240 kts | 221° |
| 2026-05-04 11:45 | 51.89104 | 0.06200 | 6146 ft | 231 kts | 221° |
| 2026-05-04 11:46 | 51.87924 | 0.04543 | 6091 ft | 218 kts | 221° |
| 2026-05-04 11:46 | 51.86810 | 0.02980 | 5983 ft | 206 kts | 221° |
| 2026-05-04 11:46 | 51.85740 | 0.01480 | 5762 ft | 201 kts | 221° |
| 2026-05-04 11:46 | 51.84693 | 0.00013 | 5544 ft | 198 kts | 221° |
| 2026-05-04 11:47 | 51.83639 | -0.01428 | 5342 ft | 199 kts | 214° |
| 2026-05-04 11:47 | 51.82340 | -0.02116 | 5113 ft | 200 kts | 176° |
| 2026-05-04 11:47 | 51.81053 | -0.01388 | 4945 ft | 199 kts | 141° |
| 2026-05-04 11:47 | 51.80110 | 0.00226 | 4748 ft | 196 kts | 131° |
| 2026-05-04 11:48 | 51.79234 | 0.01894 | 4434 ft | 197 kts | 131° |
| 2026-05-04 11:48 | 51.78344 | 0.03585 | 4170 ft | 193 kts | 131° |
| 2026-05-04 11:48 | 51.77640 | 0.05391 | 3874 ft | 189 kts | 101° |
| 2026-05-04 11:48 | 51.77874 | 0.07315 | 3633 ft | 177 kts | 51° |
| 2026-05-04 11:49 | 51.78735 | 0.08705 | 3316 ft | 174 kts | 45° |
| 2026-05-04 11:49 | 51.79596 | 0.10089 | 2960 ft | 174 kts | 44° |
| 2026-05-04 11:49 | 51.80460 | 0.11424 | 2655 ft | 170 kts | 43° |
| 2026-05-04 11:49 | 51.81333 | 0.12730 | 2243 ft | 173 kts | 42° |
| 2026-05-04 11:50 | 51.82224 | 0.14038 | 1898 ft | 172 kts | 43° |
| 2026-05-04 11:50 | 51.83079 | 0.15321 | 1649 ft | 163 kts | 43° |
| 2026-05-04 11:50 | 51.83872 | 0.16516 | 1427 ft | 150 kts | 43° |
| 2026-05-04 11:50 | 51.84615 | 0.17635 | 1222 ft | 145 kts | 42° |
| 2026-05-04 11:51 | 51.85364 | 0.18756 | 1057 ft | 149 kts | 42° |
| 2026-05-04 11:51 | 51.86132 | 0.19918 | 829 ft | 151 kts | 43° |
| 2026-05-04 11:51 | 51.86900 | 0.21072 | 605 ft | 150 kts | 43° |
| 2026-05-04 11:51 | 51.87658 | 0.22214 | 387 ft | 148 kts | 43° |
| 2026-05-04 11:52 | 51.88361 | 0.23269 | 336 ft | 116 kts | 43° |
| 2026-05-04 11:52 | 51.88751 | 0.23852 | 338 ft | 38 kts | 43° |
| 2026-05-04 11:52 | 51.88860 | 0.24126 | 355 ft | 27 kts | 68° |
| 2026-05-04 11:52 | 51.88904 | 0.24349 | 356 ft | 16 kts | 72° |
| 2026-05-04 11:53 | 51.88910 | 0.24507 | 355 ft | 14 kts | 114° |
| 2026-05-04 11:53 | 51.88949 | 0.24638 | 354 ft | 14 kts | 45° |
| 2026-05-04 11:53 | 51.89015 | 0.24741 | 351 ft | 13 kts | 42° |
| 2026-05-04 11:53 | 51.89084 | 0.24842 | 351 ft | 14 kts | 43° |
| 2026-05-04 11:55 | 51.89576 | 0.25817 | 356 ft | 15 kts | 148° |
| 2026-05-04 11:55 | 51.89499 | 0.25913 | 356 ft | 12 kts | 133° |
| 2026-05-04 11:56 | 51.89444 | 0.26010 | 351 ft | 12 kts | 133° |
| 2026-05-04 11:56 | 51.89399 | 0.26086 | 351 ft | 8 kts | 143° |
| 2026-05-04 11:56 | 51.89358 | 0.26058 | 357 ft | 5 kts | 223° |
| 2026-05-04 11:56 | 51.89345 | 0.26039 | 351 ft | 0 kts | 223° |